Terminal Aerodrome Forecast
Issued by NWS

Home | Current Version | Previous Version | Text Only | Print | Product List | Glossary On
Versions: 1 2 3 4 5 6 7 8 9 10 11 12 13 14 15 16 17 18 19 20 21 22
789
FTUS43 KEAX 281120
TAFSTJ
TAF
KSTJ 281120Z 2812/2912 07010KT P6SM -SHRA OVC035
      TEMPO 2812/2814 5SM SHRA OVC030
     FM281500 06010KT P6SM OVC015
     FM282100 03008KT P6SM BKN020
     FM290300 02010KT P6SM BKN012
     FM291000 02012KT P6SM -SHRA OVC008=

USA.gov is the U.S. government's official web portal to all federal, state and local government web resources and services.